createdAt,value
2023-05-12T00:02:17.807Z,8.20
2023-05-12T00:12:17.682Z,9.50
2023-05-12T00:22:17.926Z,7.70
2023-05-12T00:32:18.003Z,8.00
2023-05-12T00:42:18.053Z,5.30
2023-05-12T00:52:18.088Z,5.40
2023-05-12T01:02:18.037Z,6.30
2023-05-12T01:12:18.916Z,6.80
2023-05-12T01:22:23.294Z,8.40
2023-05-12T01:32:22.969Z,8.40
2023-05-12T01:42:22.497Z,7.70
2023-05-12T01:52:22.126Z,8.60
2023-05-12T02:02:21.737Z,9.00
2023-05-12T02:12:21.379Z,10.00
2023-05-12T02:22:21.003Z,8.70
2023-05-12T02:32:20.659Z,8.10
2023-05-12T02:42:20.243Z,10.00
2023-05-12T02:52:20.050Z,10.20
2023-05-12T03:02:19.526Z,10.60
2023-05-12T03:12:19.513Z,9.60
2023-05-12T03:22:19.566Z,8.00
2023-05-12T03:32:19.636Z,7.00
2023-05-12T03:42:19.717Z,7.50
2023-05-12T03:52:19.968Z,4.40
2023-05-12T04:02:19.885Z,5.40
2023-05-12T04:12:19.893Z,5.00
2023-05-12T04:22:20.029Z,5.00
2023-05-12T04:32:24.668Z,5.80
2023-05-12T04:42:24.248Z,5.40
2023-05-12T04:52:24.852Z,7.40
2023-05-12T05:02:23.614Z,7.20
2023-05-12T05:12:23.300Z,6.40
2023-05-12T05:22:22.783Z,7.50
2023-05-12T05:32:22.413Z,7.20
2023-05-12T05:42:22.025Z,6.80
2023-05-12T05:52:21.690Z,7.70
2023-05-12T06:02:21.306Z,7.30
2023-05-12T06:12:20.894Z,8.20
2023-05-12T06:22:20.654Z,7.30
2023-05-12T06:32:20.375Z,7.00
2023-05-12T06:42:20.245Z,5.70
2023-05-12T06:52:20.262Z,6.50
2023-05-12T07:02:20.334Z,6.00
2023-05-12T07:12:20.279Z,5.40
2023-05-12T07:22:20.501Z,4.40
2023-05-12T07:32:20.387Z,5.70
2023-05-12T07:42:20.473Z,4.90
2023-05-12T07:52:25.609Z,4.20
2023-05-12T08:02:25.423Z,4.90
2023-05-12T08:12:24.832Z,4.50
2023-05-12T08:22:24.610Z,4.60
2023-05-12T08:32:24.093Z,4.90
2023-05-12T08:42:23.869Z,5.50
2023-05-12T08:52:23.458Z,5.30
2023-05-12T09:02:23.050Z,6.10
2023-05-12T09:12:22.559Z,5.50
2023-05-12T09:22:22.189Z,5.50
2023-05-12T09:32:22.289Z,5.30
2023-05-12T09:42:27.628Z,5.10
2023-05-12T09:52:27.095Z,5.30
2023-05-12T10:02:26.960Z,6.60
2023-05-12T10:12:26.356Z,5.40
2023-05-12T10:22:25.980Z,5.20
2023-05-12T10:32:25.817Z,5.10
2023-05-12T10:42:27.280Z,5.90
2023-05-12T10:52:25.246Z,5.80
2023-05-12T11:02:30.857Z,6.20
2023-05-12T11:12:30.308Z,5.90
2023-05-12T11:22:29.713Z,7.00
2023-05-12T11:32:29.334Z,5.70
2023-05-12T11:42:28.930Z,5.50
2023-05-12T11:52:28.548Z,5.60
2023-05-12T12:02:34.062Z,6.10
2023-05-12T12:12:33.326Z,5.40
2023-05-12T12:22:32.940Z,6.30
2023-05-12T12:32:32.569Z,5.40
2023-05-12T12:42:36.192Z,5.40
2023-05-12T12:52:31.972Z,5.40
2023-05-12T13:02:37.042Z,5.90
2023-05-12T13:12:36.600Z,5.70
2023-05-12T13:22:36.318Z,6.10
2023-05-12T13:32:35.893Z,7.50
2023-05-12T13:42:35.449Z,6.80
2023-05-12T13:52:40.733Z,4.70
2023-05-12T14:02:40.218Z,6.00
2023-05-12T14:12:39.830Z,5.00
2023-05-12T14:22:39.555Z,6.40
2023-05-12T14:32:39.140Z,5.30
2023-05-12T14:42:44.269Z,5.80
2023-05-12T14:52:43.869Z,6.30
2023-05-12T15:02:45.295Z,6.00
2023-05-12T15:12:43.290Z,5.80
2023-05-12T15:22:42.797Z,6.40
2023-05-12T15:32:47.919Z,7.30
2023-05-12T15:42:47.482Z,6.10
2023-05-12T15:52:47.107Z,6.80
2023-05-12T16:02:46.751Z,7.10
2023-05-12T16:12:46.739Z,7.90
2023-05-12T16:22:51.951Z,6.50
2023-05-12T16:32:51.342Z,8.10
2023-05-12T16:42:50.976Z,7.80
2023-05-12T16:52:50.940Z,6.70
2023-05-12T17:02:50.278Z,6.50
2023-05-12T17:12:55.360Z,6.90
2023-05-12T17:22:55.132Z,7.70
2023-05-12T17:32:54.805Z,7.20
2023-05-12T17:42:54.271Z,6.30
2023-05-12T17:52:54.228Z,7.50
2023-05-12T18:02:53.632Z,7.80
2023-05-12T18:12:58.743Z,8.70
2023-05-12T18:22:58.444Z,7.80
2023-05-12T18:32:58.128Z,6.80
2023-05-12T18:42:57.560Z,7.50
2023-05-12T18:52:57.204Z,7.00
2023-05-12T19:02:56.973Z,7.30
2023-05-12T19:13:02.216Z,7.60
2023-05-12T19:23:01.709Z,7.90
2023-05-12T19:33:01.348Z,7.30
2023-05-12T19:43:00.957Z,7.70
2023-05-12T19:53:00.592Z,7.80
2023-05-12T20:03:00.454Z,9.40
2023-05-12T20:13:00.261Z,8.90
2023-05-12T20:23:05.397Z,8.00
2023-05-12T20:33:05.534Z,8.30
2023-05-12T20:43:04.664Z,8.50
2023-05-12T20:53:04.439Z,8.60
2023-05-12T21:03:03.982Z,9.60
2023-05-12T21:13:03.586Z,8.80
2023-05-12T21:23:03.843Z,9.70
2023-05-12T21:33:02.936Z,9.20
2023-05-12T21:43:02.696Z,9.80
2023-05-12T21:53:07.736Z,11.20
2023-05-12T22:03:07.443Z,10.80
2023-05-12T22:13:07.044Z,9.50
2023-05-12T22:23:06.644Z,9.30
2023-05-12T22:33:06.474Z,10.30
2023-05-12T22:43:05.879Z,10.90
2023-05-12T22:53:05.564Z,10.60
2023-05-12T23:03:05.361Z,11.00
2023-05-12T23:13:04.800Z,9.60
2023-05-12T23:23:04.432Z,9.20
2023-05-12T23:33:04.344Z,12.70
2023-05-12T23:43:03.849Z,11.20
2023-05-12T23:53:04.225Z,11.60
